Time;durP1;ratioP1;P1;durP2;ratioP2;P2;SDS_P1;SDS_P2;PMS_P1;PMS_P2;Temp;Humidity;BMP_temperature;BMP_pressure;BME280_temperature;BME280_humidity;BME280_pressure;Samples;Min_cycle;Max_cycle;Signal;HPM_P1;HPM_P2
2021/10/28 00:14:39;;;;;;;1999.90;999.90;;;;;;;6.80;100.00;100220.56;5095580;28;20039;-33
2021/10/28 00:17:10;;;;;;;1999.90;999.90;;;;;;;6.90;100.00;100227.28;5095534;28;20060;-33
2021/10/28 00:19:39;;;;;;;1999.90;999.90;;;;;;;6.90;100.00;100229.91;5095894;28;20102;-33
2021/10/28 00:22:06;;;;;;;1999.90;999.90;;;;;;;6.75;100.00;100220.34;5095804;28;20028;-33
2021/10/28 00:24:32;;;;;;;1999.90;999.90;;;;;;;6.82;100.00;100218.50;5095739;28;20038;-33
2021/10/28 00:26:58;;;;;;;1999.90;999.90;;;;;;;6.74;100.00;100217.91;5095427;28;20454;-33
2021/10/28 00:29:26;;;;;;;1999.90;999.90;;;;;;;6.75;100.00;100214.25;5095388;28;20032;-33
2021/10/28 00:31:56;;;;;;;1999.90;999.90;;;;;;;6.78;100.00;100206.72;5094167;28;20480;-33
2021/10/28 00:34:21;;;;;;;1999.90;999.90;;;;;;;6.80;100.00;100212.63;5095570;28;20066;-33
2021/10/28 00:36:49;;;;;;;1999.90;999.90;;;;;;;6.79;100.00;100211.00;5095218;28;20547;-33
2021/10/28 00:39:15;;;;;;;1999.90;999.90;;;;;;;6.75;100.00;100208.97;5095141;28;20035;-33
2021/10/28 00:41:41;;;;;;;1999.90;999.90;;;;;;;6.70;100.00;100214.06;5095464;28;20422;-33
2021/10/28 00:44:07;;;;;;;;;;;;;;;6.74;100.00;100218.75;5095498;28;20035;-33
2021/10/28 00:46:37;;;;;;;1999.90;999.90;;;;;;;6.70;100.00;100212.22;5095077;28;19922;-33
2021/10/28 00:49:05;;;;;;;1999.90;999.90;;;;;;;6.70;100.00;100214.88;5095022;28;20560;-33
2021/10/28 00:51:32;;;;;;;1999.90;999.90;;;;;;;6.73;100.00;100211.81;5094944;28;20020;-33
2021/10/28 00:53:59;;;;;;;1999.90;999.90;;;;;;;6.74;100.00;100208.16;5094900;28;20502;-33
2021/10/28 00:56:27;;;;;;;1999.90;999.90;;;;;;;6.77;100.00;100206.94;5094732;28;20464;-33
2021/10/28 00:58:53;;;;;;;1999.90;999.90;;;;;;;6.73;100.00;100206.53;5094864;28;20020;-33
2021/10/28 01:01:19;;;;;;;1999.90;999.90;;;;;;;6.69;100.00;100197.34;5095112;28;20027;-33
2021/10/28 01:03:45;;;;;;;1999.90;999.90;;;;;;;6.64;100.00;100200.63;5094671;28;20032;-34
2021/10/28 01:06:13;;;;;;;1999.90;999.90;;;;;;;6.70;100.00;100192.88;5094730;28;20028;-33
2021/10/28 01:08:43;;;;;;;1999.90;999.90;;;;;;;6.63;100.00;100193.69;5094929;28;20020;-34
2021/10/28 01:11:10;;;;;;;1999.90;999.90;;;;;;;6.69;100.00;100194.69;5094607;28;20055;-33
2021/10/28 01:13:38;;;;;;;1999.90;999.90;;;;;;;6.61;100.00;100201.03;5094867;28;20149;-33
2021/10/28 01:16:05;;;;;;;1999.90;999.90;;;;;;;6.63;100.00;100198.19;5094342;28;20028;-33
2021/10/28 01:18:32;;;;;;;1999.90;999.90;;;;;;;6.58;100.00;100190.06;5094547;28;20032;-33
2021/10/28 01:20:59;;;;;;;1999.90;999.90;;;;;;;6.51;100.00;100191.88;5094432;28;20032;-33
2021/10/28 01:23:26;;;;;;;1999.90;999.90;;;;;;;6.51;100.00;100197.19;5095145;28;20024;-33
2021/10/28 01:25:55;;;;;;;1999.90;999.90;;;;;;;6.50;100.00;100199.00;5094585;28;20402;-33
2021/10/28 01:28:22;;;;;;;1999.90;999.90;;;;;;;6.52;100.00;100188.19;5094547;28;20032;-33
2021/10/28 01:30:52;;;;;;;1999.90;999.90;;;;;;;6.47;100.00;100199.41;5094219;28;20032;-34
2021/10/28 01:33:19;;;;;;;1999.90;999.90;;;;;;;6.46;100.00;100195.13;5094456;28;20027;-33
2021/10/28 01:35:45;;;;;;;1999.90;999.90;;;;;;;6.52;100.00;100196.13;5093987;28;20089;-33
2021/10/28 01:38:13;;;;;;;1999.90;999.90;;;;;;;6.49;100.00;100189.44;5094056;28;20032;-33
2021/10/28 01:40:39;;;;;;;1999.90;999.90;;;;;;;6.44;100.00;100194.53;5094310;28;20103;-33
2021/10/28 01:43:06;;;;;;;1999.90;999.90;;;;;;;6.35;100.00;100191.25;5094001;28;20024;-32
2021/10/28 01:45:31;;;;;;;;;;;;;;;6.37;100.00;100196.34;5094310;28;20024;-33
2021/10/28 01:47:58;;;;;;;1999.90;999.90;;;;;;;6.36;100.00;100189.41;5093860;28;19919;-33
2021/10/28 01:50:24;;;;;;;1999.90;999.90;;;;;;;6.27;100.00;100192.28;5093871;28;20042;-34
2021/10/28 01:52:50;;;;;;;1999.90;999.90;;;;;;;6.31;100.00;100195.31;5094109;28;20043;-33
2021/10/28 01:55:16;;;;;;;1999.90;999.90;;;;;;;6.28;100.00;100185.16;5093526;28;20051;-33
2021/10/28 01:57:42;;;;;;;1999.90;999.90;;;;;;;6.24;100.00;100189.22;5094482;28;20028;-34
2021/10/28 02:00:12;;;;;;;;;;;;;;;6.20;100.00;100194.13;5094048;28;20111;-33
2021/10/28 02:02:38;;;;;;;1999.90;999.90;;;;;;;6.18;100.00;100200.63;5093943;28;19918;-33
2021/10/28 02:05:05;;;;;;;1999.90;999.90;;;;;;;6.16;100.00;100192.06;5093478;28;20028;-33
2021/10/28 02:07:31;;;;;;;1999.90;999.90;;;;;;;6.17;100.00;100193.72;5093533;28;20060;-33
2021/10/28 02:09:56;;;;;;;1999.90;999.90;;;;;;;6.16;100.00;100192.06;5093811;28;20051;-33
2021/10/28 02:12:23;;;;;;;1999.90;999.90;;;;;;;6.14;100.00;100189.63;5093476;28;20566;-33
2021/10/28 02:14:49;;;;;;;1999.90;999.90;;;;;;;6.17;100.00;100189.22;5093318;28;20039;-34
2021/10/28 02:17:14;;;;;;;1999.90;999.90;;;;;;;6.06;100.00;100195.09;5093278;28;20024;-33
2021/10/28 02:19:40;;;;;;;1999.90;999.90;;;;;;;6.04;100.00;100192.66;5093282;28;20031;-33
2021/10/28 02:22:05;;;;;;;1999.90;999.90;;;;;;;5.99;100.00;100191.63;5093543;28;20023;-34
2021/10/28 02:24:34;;;;;;;1999.90;999.90;;;;;;;5.98;100.00;100196.13;5093407;28;20498;-33
2021/10/28 02:27:01;;;;;;;1999.90;999.90;;;;;;;6.01;100.00;100195.72;5093143;28;20016;-34
2021/10/28 02:29:27;;;;;;;1999.90;999.90;;;;;;;5.96;100.00;100193.66;5093240;28;20027;-33
2021/10/28 02:31:53;;;;;;;;;;;;;;;5.96;100.00;100206.03;5093493;28;20036;-33
2021/10/28 02:34:18;;;;;;;1999.90;999.90;;;;;;;5.87;100.00;100201.97;5092986;28;19919;-33
2021/10/28 02:36:44;;;;;;;1999.90;999.90;;;;;;;5.88;100.00;100201.75;5092632;28;20035;-33
2021/10/28 02:39:10;;;;;;;1999.90;999.90;;;;;;;5.83;100.00;100206.84;5092919;28;20559;-33
2021/10/28 02:41:37;;;;;;;1999.90;999.90;;;;;;;5.85;100.00;100198.72;5093205;28;20031;-33
2021/10/28 02:44:04;;;;;;;1999.90;999.90;;;;;;;5.83;100.00;100208.66;5092808;28;20495;-33
2021/10/28 02:46:29;;;;;;;1999.90;999.90;;;;;;;5.85;100.00;100198.72;5091459;28;20024;-33
2021/10/28 02:48:55;;;;;;;1999.90;999.90;;;;;;;5.79;100.00;100202.97;5093028;28;20020;-33
2021/10/28 02:51:21;;;;;;;1999.90;999.90;;;;;;;5.86;100.00;100202.97;5092664;28;20437;-33
2021/10/28 02:53:47;;;;;;;1999.90;999.90;;;;;;;5.84;100.00;100205.00;5092723;28;20097;-33
2021/10/28 02:56:13;;;;;;;1999.90;999.90;;;;;;;5.85;100.00;100215.41;5092472;28;20282;-33
2021/10/28 02:58:38;;;;;;;1999.90;999.90;;;;;;;5.81;100.00;100213.34;5092586;28;20043;-33
2021/10/28 03:01:05;;;;;;;1999.90;999.90;;;;;;;5.82;100.00;100210.50;5092558;28;20024;-33
2021/10/28 03:03:30;;;;;;;1999.90;999.90;;;;;;;5.85;100.00;100207.47;5092515;28;20032;-33
2021/10/28 03:05:56;;;;;;;1999.90;999.90;;;;;;;5.89;100.00;100213.19;5092384;28;20111;-33
2021/10/28 03:08:22;;;;;;;1999.90;999.90;;;;;;;5.92;100.00;100215.41;5092434;28;20032;-33
2021/10/28 03:10:48;;;;;;;1999.90;999.90;;;;;;;5.89;100.00;100210.53;5092352;28;20024;-33
2021/10/28 03:13:17;;;;;;;1999.90;999.90;;;;;;;5.89;100.00;100219.28;5092341;28;20036;-33
2021/10/28 03:15:43;;;;;;;1999.90;999.90;;;;;;;5.81;100.00;100210.72;5092156;28;20031;-34
2021/10/28 03:26:26;;;;;;;1999.90;999.90;;;;;;;5.53;100.00;100222.22;5092489;28;20101;-33
2021/10/28 03:28:52;;;;;;;1999.90;999.90;;;;;;;5.52;100.00;100216.13;5092434;28;20463;-33
2021/10/28 03:31:17;;;;;;;1999.90;999.90;;;;;;;5.50;100.00;100217.31;5092039;28;20059;-33
2021/10/28 03:33:47;;;;;;;1999.90;999.90;;;;;;;5.58;100.00;100219.81;5092848;28;20110;-34
2021/10/28 03:36:19;;;;;;;1999.90;999.90;;;;;;;5.54;100.00;100218.56;5091835;28;20488;-33
2021/10/28 03:42:05;;;;;;;1999.90;999.90;;;;;;;5.54;100.00;100231.78;5089937;28;20389;-33
2021/10/28 03:50:43;;;;;;;1999.90;999.90;;;;;;;5.55;100.00;100236.03;5095148;28;20044;-33
2021/10/28 03:53:40;;;;;;;1999.90;999.90;;;;;;;5.54;100.00;100232.59;5096091;28;20035;-33
2021/10/28 04:01:49;;;;;;;1999.90;999.90;;;;;;;5.56;100.00;100227.09;5096580;28;20027;-33
2021/10/28 04:07:15;;;;;;;1999.90;999.90;;;;;;;5.64;100.00;100239.31;5095907;28;20060;-34
2021/10/28 04:31:24;;;;;;;1999.90;999.90;;;;;;;6.09;100.00;100240.53;5095711;28;20054;-34
2021/10/28 04:33:50;;;;;;;1999.90;999.90;;;;;;;6.14;100.00;100242.56;5095681;28;20024;-34
2021/10/28 04:36:16;;;;;;;1999.90;999.90;;;;;;;6.14;100.00;100247.84;5095450;28;20024;-34
2021/10/28 04:38:41;;;;;;;1999.90;999.90;;;;;;;6.13;100.00;100244.38;5095223;28;20419;-33
2021/10/28 04:41:07;;;;;;;1999.90;999.90;;;;;;;6.18;100.00;100245.59;5095540;28;20094;-34
2021/10/28 04:43:33;;;;;;;1999.90;999.90;;;;;;;6.20;100.00;100243.59;5095512;28;20484;-33
2021/10/28 04:45:59;;;;;;;1999.90;999.90;;;;;;;6.25;100.00;100254.38;5095026;28;20484;-33
2021/10/28 04:48:24;;;;;;;1999.90;999.90;;;;;;;6.29;100.00;100248.47;5095405;28;20028;-34
2021/10/28 04:50:50;;;;;;;1999.90;999.90;;;;;;;6.30;100.00;100246.66;5095050;28;20032;-33
2021/10/28 04:53:16;;;;;;;1999.90;999.90;;;;;;;6.31;100.00;100250.91;5095229;28;20024;-33
2021/10/28 04:55:42;;;;;;;1999.90;999.90;;;;;;;6.43;100.00;100256.41;5094713;28;20048;-33
2021/10/28 04:58:08;;;;;;;1999.90;999.90;;;;;;;6.49;100.00;100258.28;5094749;28;20042;-33
2021/10/28 05:00:34;;;;;;;1999.90;999.90;;;;;;;6.57;100.00;100262.56;5094508;28;20427;-33
2021/10/28 05:03:00;;;;;;;;;;;;;;;6.59;100.00;100261.34;5095222;28;20032;-33
2021/10/28 05:05:26;;;;;;;1999.90;999.90;;;;;;;6.72;100.00;100263.16;5094762;28;19919;-33
2021/10/28 05:07:51;;;;;;;1999.90;999.90;;;;;;;6.97;100.00;100267.81;5094680;28;20028;-33
2021/10/28 05:10:17;;;;;;;1999.90;999.90;;;;;;;7.27;100.00;100273.50;5094999;28;20024;-34
2021/10/28 05:12:43;;;;;;;1999.90;999.90;;;;;;;7.48;100.00;100279.56;5094551;28;20743;-34
2021/10/28 05:15:09;;;;;;;1999.90;999.90;;;;;;;7.78;100.00;100277.19;5094599;28;20032;-33
2021/10/28 05:17:35;;;;;;;1999.90;999.90;;;;;;;8.04;100.00;100288.69;5094303;28;20024;-33
2021/10/28 05:20:01;;;;;;;1999.90;999.90;;;;;;;8.26;100.00;100283.88;5094528;28;20032;-33
2021/10/28 05:22:26;;;;;;;1999.90;999.90;;;;;;;8.48;100.00;100281.72;5094750;28;20028;-33
2021/10/28 05:24:52;;;;;;;1999.90;999.90;;;;;;;8.73;100.00;100287.03;5094402;28;20394;-33
2021/10/28 05:27:18;;;;;;;1999.90;999.90;;;;;;;8.88;100.00;100283.22;5094584;28;20024;-34
2021/10/28 05:29:43;;;;;;;1999.90;999.90;;;;;;;8.99;97.36;100277.22;5094280;28;20020;-33
2021/10/28 05:32:09;;;;;;;1999.90;999.90;;;;;;;9.26;96.71;100290.25;5094223;28;20316;-34
2021/10/28 05:34:37;;;;;;;1999.90;999.90;;;;;;;9.32;97.39;100289.34;5094536;28;20343;-34
2021/10/28 05:37:04;;;;;;;1999.90;999.90;;;;;;;9.43;95.79;100295.81;5093945;28;20081;-34
2021/10/28 05:39:29;;;;;;;1999.90;999.90;;;;;;;9.60;95.08;100293.34;5094125;28;20028;-33
2021/10/28 05:41:55;;;;;;;1999.90;999.90;;;;;;;9.80;95.49;100306.44;5094100;28;20028;-33
2021/10/28 05:44:21;;;;;;;1999.90;999.90;;;;;;;9.94;92.80;100307.06;5093999;28;20032;-33
2021/10/28 05:46:47;;;;;;;1999.90;999.90;;;;;;;10.07;91.05;100306.09;5094253;28;20030;-33
2021/10/28 05:49:13;;;;;;;1999.90;999.90;;;;;;;10.03;91.12;100319.03;5093954;28;20483;-33
2021/10/28 05:51:39;;;;;;;1999.90;999.90;;;;;;;10.06;89.37;100315.94;5092642;28;20093;-33
2021/10/28 05:54:05;;;;;;;;;;;;;;;10.15;88.71;100321.75;5094001;28;20119;-33
2021/10/28 05:56:31;;;;;;;1999.90;999.90;;;;;;;10.32;89.87;100313.94;5093577;28;20007;-33
2021/10/28 05:58:57;;;;;;;1999.90;999.90;;;;;;;10.35;89.71;100316.19;5093705;28;20024;-33
2021/10/28 06:01:22;;;;;;;1999.90;999.90;;;;;;;10.52;87.85;100318.22;5094004;28;20035;-33
2021/10/28 06:03:48;;;;;;;1999.90;999.90;;;;;;;10.53;86.69;100315.31;5093898;28;20054;-33
2021/10/28 06:06:14;;;;;;;1999.90;999.90;;;;;;;10.61;89.24;100312.28;5093418;28;20086;-33
2021/10/28 06:08:39;;;;;;;1999.90;999.90;;;;;;;10.64;88.96;100311.03;5093549;28;20032;-33
2021/10/28 06:11:05;;;;;;;1999.90;999.90;;;;;;;10.64;86.64;100314.53;5092584;28;20056;-33
2021/10/28 06:13:31;;;;;;;1999.90;999.90;;;;;;;10.62;87.20;100315.78;5093808;28;20032;-33
2021/10/28 06:15:59;;;;;;;1999.90;999.90;;;;;;;10.70;89.25;100319.97;5093304;28;20554;-33
2021/10/28 06:20:54;;;;;;;1999.90;999.90;;;;;;;10.68;88.65;100318.34;5093347;28;20708;-33
2021/10/28 06:23:19;;;;;;;1999.90;999.90;;;;;;;10.73;89.38;100314.19;5093519;28;20070;-34
2021/10/28 06:25:45;;;;;;;1999.90;999.90;;;;;;;10.66;86.71;100308.97;5093200;28;20550;-33
2021/10/28 06:28:11;;;;;;;1999.90;999.90;;;;;;;10.62;88.96;100318.47;5093355;28;20117;-33
2021/10/28 06:30:37;;;;;;;1999.90;999.90;;;;;;;10.66;88.71;100322.28;5093084;28;20024;-33
2021/10/28 06:33:08;;;;;;;1999.90;999.90;;;;;;;10.63;88.01;100326.22;5093084;28;20132;-33
2021/10/28 06:35:37;;;;;;;1999.90;999.90;;;;;;;10.43;89.80;100333.69;5092967;28;20099;-32
2021/10/28 06:38:04;;;;;;;1999.90;999.90;;;;;;;10.22;90.63;100334.97;5092806;28;20579;-33
2021/10/28 06:40:30;;;;;;;1999.90;999.90;;;;;;;10.18;90.79;100333.81;5093230;28;20024;-34
2021/10/28 06:42:56;;;;;;;1999.90;999.90;;;;;;;10.09;91.53;100328.78;5092886;28;20028;-33
2021/10/28 06:45:22;;;;;;;1999.90;999.90;;;;;;;10.21;95.91;100323.50;5093170;28;20039;-34
2021/10/28 06:47:48;;;;;;;1999.90;999.90;;;;;;;10.28;94.21;100334.88;5092717;28;20111;-33
2021/10/28 06:50:16;;;;;;;1999.90;999.90;;;;;;;10.49;91.77;100325.59;5092723;28;20027;-34
2021/10/28 06:52:55;;;;;;;1999.90;999.90;;;;;;;10.55;90.98;100325.75;5092671;28;20131;-33
2021/10/28 06:55:37;;;;;;;1999.90;999.90;;;;;;;10.62;89.85;100327.25;5092635;28;20067;-33
2021/10/28 07:03:35;;;;;;;1999.90;999.90;;;;;;;10.62;91.27;100334.44;5093183;28;20031;-33
2021/10/28 07:06:08;;;;;;;1999.90;999.90;;;;;;;10.69;91.30;100327.16;5093375;28;20020;-33
2021/10/28 07:08:37;;;;;;;1999.90;999.90;;;;;;;10.65;92.36;100321.47;5092403;28;20031;-33
2021/10/28 07:11:08;;;;;;;1999.90;999.90;;;;;;;10.62;90.16;100318.47;5092750;28;20125;-33
2021/10/28 07:13:35;;;;;;;1999.90;999.90;;;;;;;10.43;91.96;100331.84;5092408;28;20103;-33
2021/10/28 07:16:13;;;;;;;1999.90;999.90;;;;;;;10.57;92.87;100319.16;5092319;28;20024;-33
2021/10/28 07:18:53;;;;;;;1999.90;999.90;;;;;;;10.75;91.43;100334.25;5092150;28;20081;-33
2021/10/28 07:24:30;;;;;;;1999.90;999.90;;;;;;;10.88;93.40;100327.91;5092565;28;20051;-33
2021/10/28 07:27:17;;;;;;;1999.90;999.90;;;;;;;11.02;91.16;100331.94;5092077;28;20032;-33
2021/10/28 07:32:33;;;;;;;1999.90;999.90;;;;;;;11.46;89.99;100338.78;5092214;28;20040;-34
2021/10/28 08:04:52;;;;;;;1999.90;999.90;;;;;;;12.13;87.15;100329.47;5092421;28;20089;-33
2021/10/28 08:13:52;;;;;;;1999.90;999.90;;;;;;;12.59;83.81;100341.00;5092062;28;20032;-34
2021/10/28 08:19:05;;;;;;;1999.90;999.90;;;;;;;12.39;86.11;100339.59;5091661;28;20119;-33
2021/10/28 08:21:43;;;;;;;1999.90;999.90;;;;;;;12.48;84.15;100341.88;5091634;28;20474;-33
2021/10/28 08:24:17;;;;;;;1999.90;999.90;;;;;;;12.67;80.98;100339.78;5091612;28;20032;-33
2021/10/28 08:31:56;;;;;;;1999.90;999.90;;;;;;;12.34;84.17;100350.19;5091567;28;20025;-33
2021/10/28 08:34:29;;;;;;;1999.90;999.90;;;;;;;12.47;81.79;100348.28;5093352;28;20032;-33
2021/10/28 08:36:57;;;;;;;1999.90;999.90;;;;;;;12.67;82.77;100347.81;5095294;28;20094;-33
2021/10/28 08:39:23;;;;;;;1999.90;999.90;;;;;;;12.83;82.10;100346.19;5095094;28;20028;-33
2021/10/28 08:41:49;;;;;;;1999.90;999.90;;;;;;;12.42;79.54;100344.47;5095262;28;20059;-33
2021/10/28 08:44:21;;;;;;;1999.90;999.90;;;;;;;12.50;81.25;100342.47;5095487;28;20511;-33
2021/10/28 08:46:52;;;;;;;1999.90;999.90;;;;;;;12.57;79.63;100349.25;5095146;28;20031;-33
2021/10/28 08:49:28;;;;;;;1999.90;999.90;;;;;;;12.69;79.22;100351.06;5095363;28;20069;-33
2021/10/28 08:55:13;;;;;;;1999.90;999.90;;;;;;;12.58;79.99;100358.91;5093577;28;20449;-34
2021/10/28 08:58:07;;;;;;;1999.90;999.90;;;;;;;12.74;79.47;100353.81;5095159;28;20464;-33
2021/10/28 09:25:52;;;;;;;;;;;;;;;12.82;78.01;100337.38;5095169;28;20415;-33
2021/10/28 09:28:33;;;;;;;1999.90;999.90;;;;;;;12.76;83.07;100341.03;5094194;28;20405;-34
2021/10/28 09:31:19;;;;;;;1999.90;999.90;;;;;;;12.75;86.05;100339.41;5094438;28;20028;-33
2021/10/28 09:34:13;;;;;;;1999.90;999.90;;;;;;;12.72;78.02;100343.34;5094246;28;20118;-33
2021/10/28 09:51:09;;;;;;;1999.90;999.90;;;;;;;12.82;86.39;100337.38;5093902;28;20036;-33
2021/10/28 09:59:46;;;;;;;1999.90;999.90;;;;;;;13.05;83.19;100332.91;5093991;28;20514;-34
2021/10/28 10:02:32;;;;;;;1999.90;999.90;;;;;;;13.12;77.24;100326.31;5093760;28;20035;-34
2021/10/28 10:05:05;;;;;;;1999.90;999.90;;;;;;;13.08;70.19;100316.34;5093666;28;20101;-34
2021/10/28 10:07:31;;;;;;;1999.90;999.90;;;;;;;13.17;72.75;100316.75;5093539;28;20025;-34
2021/10/28 10:10:01;;;;;;;1999.90;999.90;;;;;;;13.14;72.18;100315.41;5093498;28;20022;-34
2021/10/28 10:12:27;;;;;;;1999.90;999.90;;;;;;;13.17;71.41;100312.22;5093791;28;20024;-33
2021/10/28 10:14:53;;;;;;;1999.90;999.90;;;;;;;13.28;74.91;100322.00;5093444;28;20572;-33
2021/10/28 10:17:19;;;;;;;1999.90;999.90;;;;;;;13.46;78.61;100317.44;5093322;28;20038;-33
2021/10/28 10:19:50;;;;;;;1999.90;999.90;;;;;;;13.58;75.94;100317.34;5093552;28;20027;-33
2021/10/28 10:25:05;;;;;;;1999.90;999.90;;;;;;;13.57;77.41;100313.84;5093292;28;20032;-33
2021/10/28 11:32:38;;;;;;;1999.90;999.90;;;;;;;13.73;74.37;100273.88;5092780;28;20085;-33
2021/10/28 12:28:41;;;;;;;1999.90;999.90;;;;;;;13.68;75.37;100242.47;5093427;28;20020;-34
2021/10/28 12:46:24;;;;;;;1999.90;999.90;;;;;;;13.63;77.59;100232.53;5093262;28;20035;-34
2021/10/28 12:51:59;;;;;;;1999.90;999.90;;;;;;;13.54;78.05;100230.56;5093124;28;20036;-33
2021/10/28 12:54:50;;;;;;;1999.90;999.90;;;;;;;13.58;77.72;100237.00;5092712;28;20059;-34
2021/10/28 13:58:49;;;;;;;1999.90;999.90;;;;;;;12.92;83.03;100217.16;5091871;28;20035;-34
2021/10/28 15:03:00;;;;;;;1999.90;999.90;;;;;;;11.34;97.99;100216.06;5092821;28;20457;-34
2021/10/28 15:27:46;;;;;;;1999.90;999.90;;;;;;;10.35;100.00;100214.13;5092251;28;20553;-33
2021/10/28 15:38:34;;;;;;;1999.90;999.90;;;;;;;9.96;100.00;100225.13;5089961;28;20035;-34
2021/10/28 15:50:04;;;;;;;1999.90;999.90;;;;;;;9.71;100.00;100236.72;5090283;28;20042;-33
2021/10/28 15:57:56;;;;;;;1999.90;999.90;;;;;;;9.39;100.00;100228.91;5090303;28;20034;-34
2021/10/28 16:21:59;;;;;;;1999.90;999.90;;;;;;;9.21;100.00;100239.56;5092224;28;20501;-34
2021/10/28 16:24:31;;;;;;;1999.90;999.90;;;;;;;9.18;100.00;100237.38;5091647;28;20534;-34
2021/10/28 16:26:58;;;;;;;1999.90;999.90;;;;;;;9.20;100.00;100240.59;5092186;28;20092;-34
2021/10/28 16:29:25;;;;;;;1999.90;999.90;;;;;;;9.18;100.00;100234.69;5091578;28;20036;-34
2021/10/28 16:31:51;;;;;;;1999.90;999.90;;;;;;;9.17;100.00;100223.22;5091456;28;20024;-33
2021/10/28 16:34:18;;;;;;;1999.90;999.90;;;;;;;9.16;100.00;100232.28;5091572;28;20032;-34
2021/10/28 16:36:46;;;;;;;1999.90;999.90;;;;;;;9.15;100.00;100235.13;5091388;28;20093;-34
2021/10/28 16:39:14;;;;;;;1999.90;999.90;;;;;;;9.08;100.00;100235.19;5091506;28;20028;-34
2021/10/28 16:41:43;;;;;;;1999.90;999.90;;;;;;;9.12;100.00;100228.41;5091431;28;20488;-34
2021/10/28 16:44:10;;;;;;;1999.90;999.90;;;;;;;9.08;100.00;100230.69;5091313;28;20073;-34
2021/10/28 16:46:37;;;;;;;1999.90;999.90;;;;;;;9.02;100.00;100223.59;5091421;28;20028;-33
2021/10/28 16:49:07;;;;;;;1999.90;999.90;;;;;;;9.01;100.00;100231.81;5091346;28;20062;-33
2021/10/28 16:51:34;;;;;;;1999.90;999.90;;;;;;;8.98;100.00;100232.25;5091300;28;20071;-33
2021/10/28 16:54:00;;;;;;;;;;;;;;;8.93;100.00;100239.03;5091580;28;20051;-34
2021/10/28 16:56:25;;;;;;;1999.90;999.90;;;;;;;8.88;100.00;100238.06;5094404;28;19912;-34
2021/10/28 16:58:52;;;;;;;1999.90;999.90;;;;;;;8.85;100.00;100244.63;5095240;28;20169;-34
2021/10/28 17:01:17;;;;;;;1999.90;999.90;;;;;;;8.85;100.00;100239.31;5094797;28;20040;-34
2021/10/28 17:03:43;;;;;;;1999.90;999.90;;;;;;;8.84;100.00;100240.34;5095140;28;20112;-34
2021/10/28 17:06:12;;;;;;;1999.90;999.90;;;;;;;8.83;100.00;100240.56;5094805;28;20490;-34
2021/10/28 17:08:38;;;;;;;1999.90;999.90;;;;;;;8.82;100.00;100239.72;5095087;28;20478;-34
2021/10/28 17:11:04;;;;;;;1999.90;999.90;;;;;;;8.81;100.00;100234.63;5095122;28;20056;-34
2021/10/28 17:13:30;;;;;;;;;;;;;;;8.78;100.00;100246.53;5095035;28;20024;-34
2021/10/28 17:15:56;;;;;;;1999.90;999.90;;;;;;;8.75;100.00;100239.81;5094636;28;19912;-33
2021/10/28 17:18:22;;;;;;;1999.90;999.90;;;;;;;8.78;100.00;100245.72;5094520;28;20027;-34
2021/10/28 17:20:47;;;;;;;1999.90;999.90;;;;;;;8.74;100.00;100248.81;5094806;28;20036;-34
2021/10/28 17:23:17;;;;;;;1999.90;999.90;;;;;;;8.77;100.00;100249.41;5094473;28;20032;-34
2021/10/28 17:25:50;;;;;;;1999.90;999.90;;;;;;;8.74;100.00;100242.69;5095062;28;20036;-34
2021/10/28 17:28:16;;;;;;;1999.90;999.90;;;;;;;8.74;100.00;100253.31;5094446;28;20066;-34
2021/10/28 17:30:43;;;;;;;1999.90;999.90;;;;;;;8.75;100.00;100254.94;5094660;28;20050;-34
2021/10/28 17:33:09;;;;;;;1999.90;999.90;;;;;;;8.74;100.00;100245.34;5094234;28;20518;-34
2021/10/28 17:35:34;;;;;;;1999.90;999.90;;;;;;;8.71;100.00;100257.22;5094620;28;20103;-34
2021/10/28 17:38:01;;;;;;;1999.90;999.90;;;;;;;8.69;100.00;100256.63;5094188;28;20055;-33
2021/10/28 17:40:28;;;;;;;1999.90;999.90;;;;;;;8.71;100.00;100257.22;5094482;28;20030;-34
2021/10/28 17:42:56;;;;;;;1999.90;999.90;;;;;;;8.77;100.00;100258.19;5094030;28;20464;-34
2021/10/28 17:45:26;;;;;;;1999.90;999.90;;;;;;;8.78;100.00;100256.34;5094027;28;20032;-34
2021/10/28 17:47:54;;;;;;;1999.90;999.90;;;;;;;8.79;100.00;100257.97;5094419;28;20048;-34
2021/10/28 17:50:22;;;;;;;1999.90;999.90;;;;;;;8.78;100.00;100259.84;5093980;28;20480;-34
2021/10/28 17:52:47;;;;;;;1999.90;999.90;;;;;;;8.82;100.00;100270.81;5093862;28;20073;-34
2021/10/28 17:55:13;;;;;;;1999.90;999.90;;;;;;;8.75;100.00;100268.22;5093882;28;20134;-34
2021/10/28 17:57:41;;;;;;;1999.90;999.90;;;;;;;8.73;100.00;100260.47;5094103;28;20027;-34
2021/10/28 18:00:09;;;;;;;1999.90;999.90;;;;;;;8.75;100.00;100255.75;5094110;28;20043;-34
2021/10/28 18:02:37;;;;;;;1999.90;999.90;;;;;;;8.74;100.00;100256.78;5093693;28;20016;-34
2021/10/28 18:05:04;;;;;;;1999.90;999.90;;;;;;;8.73;100.00;100257.00;5093658;28;20028;-34
2021/10/28 18:07:29;;;;;;;;;;;;;;;8.68;100.00;100251.53;5093339;28;20106;-34
2021/10/28 18:09:57;;;;;;;1999.90;999.90;;;;;;;8.65;100.00;100255.44;5093862;28;20011;-34
2021/10/28 18:12:24;;;;;;;1999.90;999.90;;;;;;;8.63;100.00;100251.38;5093484;28;20051;-33
2021/10/28 18:14:50;;;;;;;1999.90;999.90;;;;;;;8.61;100.00;100256.09;5093539;28;20058;-34
2021/10/28 18:17:18;;;;;;;1999.90;999.90;;;;;;;8.64;100.00;100247.69;5093655;28;20021;-34
2021/10/28 18:19:45;;;;;;;1999.90;999.90;;;;;;;8.60;100.00;100249.94;5093405;28;20103;-34
2021/10/28 18:22:13;;;;;;;1999.90;999.90;;;;;;;8.64;100.00;100255.66;5093324;28;20081;-34
2021/10/28 18:24:39;;;;;;;1999.90;999.90;;;;;;;8.59;100.00;100253.66;5093345;28;20032;-34
2021/10/28 18:27:07;;;;;;;1999.90;999.90;;;;;;;8.58;100.00;100255.47;5093564;28;20020;-34
2021/10/28 18:29:34;;;;;;;1999.90;999.90;;;;;;;8.57;100.00;100253.88;5093177;28;20505;-34
2021/10/28 18:32:00;;;;;;;1999.90;999.90;;;;;;;8.56;100.00;100254.91;5093214;28;20059;-33
2021/10/28 18:34:26;;;;;;;1999.90;999.90;;;;;;;8.55;100.00;100255.13;5093042;28;20032;-34
2021/10/28 18:36:52;;;;;;;1999.90;999.90;;;;;;;8.54;100.00;100245.50;5093350;28;20103;-33
2021/10/28 18:39:20;;;;;;;1999.90;999.90;;;;;;;8.54;100.00;100248.97;5093059;28;20527;-33
2021/10/28 18:41:47;;;;;;;1999.90;999.90;;;;;;;8.51;100.00;100245.94;5092962;28;20027;-34
2021/10/28 18:44:14;;;;;;;1999.90;999.90;;;;;;;8.48;100.00;100247.19;5093216;28;20027;-34
2021/10/28 18:46:40;;;;;;;1999.90;999.90;;;;;;;8.48;100.00;100244.53;5093223;28;20403;-34
2021/10/28 18:49:07;;;;;;;1999.90;999.90;;;;;;;8.51;100.00;100246.75;5092874;28;20027;-34
2021/10/28 18:51:36;;;;;;;1999.90;999.90;;;;;;;8.51;100.00;100246.75;5092799;28;20135;-33
2021/10/28 18:54:02;;;;;;;1999.90;999.90;;;;;;;8.50;100.00;100246.97;5092682;28;20415;-34
2021/10/28 18:56:29;;;;;;;1999.90;999.90;;;;;;;8.46;100.00;100246.59;5093085;28;20024;-33
2021/10/28 18:58:55;;;;;;;;;;;;;;;8.46;100.00;100249.25;5093406;28;20136;-34
2021/10/28 19:01:21;;;;;;;1999.90;999.90;;;;;;;8.46;100.00;100249.25;5092578;28;20379;-34
2021/10/28 19:03:46;;;;;;;1999.90;999.90;;;;;;;8.43;100.00;100251.47;5092551;28;20030;-34
2021/10/28 19:06:14;;;;;;;1999.90;999.90;;;;;;;8.47;100.00;100260.69;5092566;28;20026;-33
2021/10/28 19:08:42;;;;;;;1999.90;999.90;;;;;;;8.53;100.00;100263.28;5092487;28;20024;-34
2021/10/28 19:11:10;;;;;;;1999.90;999.90;;;;;;;8.52;100.00;100255.53;5092802;28;20082;-34